sensor_id;sensor_type;location;lat;lon;timestamp;temperature;humidity
37408;DHT22;24866;50.248;8.252;2022-12-07T00:01:37;2.80;99.90
37408;DHT22;24866;50.248;8.252;2022-12-07T00:04:11;2.60;99.90
37408;DHT22;24866;50.248;8.252;2022-12-07T00:06:44;2.50;99.90
37408;DHT22;24866;50.248;8.252;2022-12-07T00:09:16;2.50;99.90
37408;DHT22;24866;50.248;8.252;2022-12-07T00:11:48;2.50;99.90
37408;DHT22;24866;50.248;8.252;2022-12-07T00:14:20;2.60;99.90
37408;DHT22;24866;50.248;8.252;2022-12-07T00:16:51;2.70;99.90
37408;DHT22;24866;50.248;8.252;2022-12-07T00:19:21;2.80;99.90
37408;DHT22;24866;50.248;8.252;2022-12-07T00:21:52;2.80;99.90
37408;DHT22;24866;50.248;8.252;2022-12-07T00:24:22;2.80;99.90
37408;DHT22;24866;50.248;8.252;2022-12-07T00:26:52;2.90;99.90
37408;DHT22;24866;50.248;8.252;2022-12-07T00:29:22;3.00;99.90
37408;DHT22;24866;50.248;8.252;2022-12-07T00:31:52;2.80;99.90
37408;DHT22;24866;50.248;8.252;2022-12-07T00:34:22;2.70;99.90
37408;DHT22;24866;50.248;8.252;2022-12-07T00:36:53;2.60;99.90
37408;DHT22;24866;50.248;8.252;2022-12-07T00:39:23;2.60;99.90
37408;DHT22;24866;50.248;8.252;2022-12-07T00:41:53;2.70;99.90
37408;DHT22;24866;50.248;8.252;2022-12-07T00:44:23;2.70;99.90
37408;DHT22;24866;50.248;8.252;2022-12-07T00:46:53;2.70;99.90
37408;DHT22;24866;50.248;8.252;2022-12-07T00:49:24;2.60;99.90
37408;DHT22;24866;50.248;8.252;2022-12-07T00:51:55;2.70;99.90
37408;DHT22;24866;50.248;8.252;2022-12-07T00:54:25;2.80;99.90
37408;DHT22;24866;50.248;8.252;2022-12-07T00:56:55;2.80;99.90
37408;DHT22;24866;50.248;8.252;2022-12-07T00:59:25;2.80;99.90
37408;DHT22;24866;50.248;8.252;2022-12-07T01:01:55;2.80;99.90
37408;DHT22;24866;50.248;8.252;2022-12-07T01:04:25;2.90;99.90
37408;DHT22;24866;50.248;8.252;2022-12-07T01:06:56;2.80;99.90
37408;DHT22;24866;50.248;8.252;2022-12-07T01:09:26;2.60;99.90
37408;DHT22;24866;50.248;8.252;2022-12-07T01:11:56;2.50;99.90
37408;DHT22;24866;50.248;8.252;2022-12-07T01:14:26;2.60;99.90
37408;DHT22;24866;50.248;8.252;2022-12-07T01:16:56;2.70;99.90
37408;DHT22;24866;50.248;8.252;2022-12-07T01:19:26;2.80;99.90
37408;DHT22;24866;50.248;8.252;2022-12-07T01:21:57;2.90;99.90
37408;DHT22;24866;50.248;8.252;2022-12-07T01:24:27;3.00;99.90
37408;DHT22;24866;50.248;8.252;2022-12-07T01:26:57;3.10;99.90
37408;DHT22;24866;50.248;8.252;2022-12-07T01:29:27;3.00;99.90
37408;DHT22;24866;50.248;8.252;2022-12-07T01:31:56;2.90;99.90
37408;DHT22;24866;50.248;8.252;2022-12-07T01:34:26;3.00;99.90
37408;DHT22;24866;50.248;8.252;2022-12-07T01:36:58;3.00;99.90
37408;DHT22;24866;50.248;8.252;2022-12-07T01:39:28;3.00;99.90
37408;DHT22;24866;50.248;8.252;2022-12-07T01:41:58;2.90;99.90
37408;DHT22;24866;50.248;8.252;2022-12-07T01:44:28;2.80;99.90
37408;DHT22;24866;50.248;8.252;2022-12-07T01:47:01;2.80;99.90
37408;DHT22;24866;50.248;8.252;2022-12-07T01:49:35;2.90;99.90
37408;DHT22;24866;50.248;8.252;2022-12-07T01:52:13;2.90;99.90
37408;DHT22;24866;50.248;8.252;2022-12-07T01:54:46;2.80;99.90
37408;DHT22;24866;50.248;8.252;2022-12-07T01:57:17;2.90;99.90
37408;DHT22;24866;50.248;8.252;2022-12-07T01:59:49;2.90;99.90
37408;DHT22;24866;50.248;8.252;2022-12-07T02:02:24;2.80;99.90
37408;DHT22;24866;50.248;8.252;2022-12-07T02:04:56;2.70;99.90
37408;DHT22;24866;50.248;8.252;2022-12-07T02:07:29;2.70;99.90
37408;DHT22;24866;50.248;8.252;2022-12-07T02:10:11;2.70;99.90
37408;DHT22;24866;50.248;8.252;2022-12-07T02:12:41;2.60;99.90
37408;DHT22;24866;50.248;8.252;2022-12-07T02:15:12;2.70;99.90
37408;DHT22;24866;50.248;8.252;2022-12-07T02:17:49;2.80;99.90
37408;DHT22;24866;50.248;8.252;2022-12-07T02:20:28;2.90;99.90
37408;DHT22;24866;50.248;8.252;2022-12-07T02:23:28;2.90;99.90
37408;DHT22;24866;50.248;8.252;2022-12-07T02:26:26;3.00;99.90
37408;DHT22;24866;50.248;8.252;2022-12-07T02:29:13;2.90;99.90
37408;DHT22;24866;50.248;8.252;2022-12-07T02:31:53;2.90;99.90
37408;DHT22;24866;50.248;8.252;2022-12-07T02:34:32;2.90;99.90
37408;DHT22;24866;50.248;8.252;2022-12-07T02:37:09;2.80;99.90
37408;DHT22;24866;50.248;8.252;2022-12-07T02:39:44;2.80;99.90
37408;DHT22;24866;50.248;8.252;2022-12-07T02:42:19;2.80;99.90
37408;DHT22;24866;50.248;8.252;2022-12-07T02:44:54;2.60;99.90
37408;DHT22;24866;50.248;8.252;2022-12-07T02:47:25;2.70;99.90
37408;DHT22;24866;50.248;8.252;2022-12-07T02:49:56;2.60;99.90
37408;DHT22;24866;50.248;8.252;2022-12-07T02:52:25;2.50;99.90
37408;DHT22;24866;50.248;8.252;2022-12-07T02:54:55;2.50;99.90
37408;DHT22;24866;50.248;8.252;2022-12-07T02:57:36;2.50;99.90
37408;DHT22;24866;50.248;8.252;2022-12-07T03:00:15;2.50;99.90
37408;DHT22;24866;50.248;8.252;2022-12-07T03:02:53;2.50;99.90
37408;DHT22;24866;50.248;8.252;2022-12-07T03:05:40;2.50;99.90
37408;DHT22;24866;50.248;8.252;2022-12-07T03:08:18;2.50;99.90
37408;DHT22;24866;50.248;8.252;2022-12-07T03:10:56;2.40;99.90
37408;DHT22;24866;50.248;8.252;2022-12-07T03:13:30;2.40;99.90
37408;DHT22;24866;50.248;8.252;2022-12-07T03:16:09;2.40;99.90
37408;DHT22;24866;50.248;8.252;2022-12-07T03:18:43;2.40;99.90
37408;DHT22;24866;50.248;8.252;2022-12-07T03:21:17;2.50;99.90
37408;DHT22;24866;50.248;8.252;2022-12-07T03:23:51;2.50;99.90
37408;DHT22;24866;50.248;8.252;2022-12-07T03:26:26;2.50;99.90
37408;DHT22;24866;50.248;8.252;2022-12-07T03:29:02;2.50;99.90
37408;DHT22;24866;50.248;8.252;2022-12-07T03:31:39;2.50;99.90
37408;DHT22;24866;50.248;8.252;2022-12-07T03:34:14;2.50;99.90
37408;DHT22;24866;50.248;8.252;2022-12-07T03:36:47;2.50;99.90
37408;DHT22;24866;50.248;8.252;2022-12-07T03:39:24;2.50;99.90
37408;DHT22;24866;50.248;8.252;2022-12-07T03:41:57;2.50;99.90
37408;DHT22;24866;50.248;8.252;2022-12-07T03:44:29;2.40;99.90
37408;DHT22;24866;50.248;8.252;2022-12-07T03:47:03;2.40;99.90
37408;DHT22;24866;50.248;8.252;2022-12-07T03:49:40;2.40;99.90
37408;DHT22;24866;50.248;8.252;2022-12-07T03:52:18;2.40;99.90
37408;DHT22;24866;50.248;8.252;2022-12-07T03:54:56;2.40;99.90
37408;DHT22;24866;50.248;8.252;2022-12-07T03:57:28;2.40;99.90
37408;DHT22;24866;50.248;8.252;2022-12-07T03:59:59;2.50;99.90
37408;DHT22;24866;50.248;8.252;2022-12-07T04:02:32;2.50;99.90
37408;DHT22;24866;50.248;8.252;2022-12-07T04:05:03;2.50;99.90
37408;DHT22;24866;50.248;8.252;2022-12-07T04:07:33;2.40;99.90
37408;DHT22;24866;50.248;8.252;2022-12-07T04:10:04;2.40;99.90
37408;DHT22;24866;50.248;8.252;2022-12-07T04:12:34;2.50;99.90
37408;DHT22;24866;50.248;8.252;2022-12-07T04:15:05;2.50;99.90
37408;DHT22;24866;50.248;8.252;2022-12-07T04:17:37;2.40;99.90
37408;DHT22;24866;50.248;8.252;2022-12-07T04:20:08;2.40;99.90
37408;DHT22;24866;50.248;8.252;2022-12-07T04:22:38;2.40;99.90
37408;DHT22;24866;50.248;8.252;2022-12-07T04:25:08;2.40;99.90
37408;DHT22;24866;50.248;8.252;2022-12-07T04:27:38;2.40;99.90
37408;DHT22;24866;50.248;8.252;2022-12-07T04:30:08;2.50;99.90
37408;DHT22;24866;50.248;8.252;2022-12-07T04:32:40;2.40;99.90
37408;DHT22;24866;50.248;8.252;2022-12-07T04:35:10;2.40;99.90
37408;DHT22;24866;50.248;8.252;2022-12-07T04:37:40;2.40;99.90
37408;DHT22;24866;50.248;8.252;2022-12-07T04:40:11;2.40;99.90
37408;DHT22;24866;50.248;8.252;2022-12-07T04:42:42;2.40;99.90
37408;DHT22;24866;50.248;8.252;2022-12-07T04:45:12;2.40;99.90
37408;DHT22;24866;50.248;8.252;2022-12-07T04:47:44;2.40;99.90
37408;DHT22;24866;50.248;8.252;2022-12-07T04:50:13;2.40;99.90
37408;DHT22;24866;50.248;8.252;2022-12-07T04:52:43;2.50;99.90
37408;DHT22;24866;50.248;8.252;2022-12-07T04:55:13;2.50;99.90
37408;DHT22;24866;50.248;8.252;2022-12-07T04:57:43;2.50;99.90
37408;DHT22;24866;50.248;8.252;2022-12-07T05:00:13;2.50;99.90
37408;DHT22;24866;50.248;8.252;2022-12-07T05:02:45;2.50;99.90
37408;DHT22;24866;50.248;8.252;2022-12-07T05:05:15;2.50;99.90
37408;DHT22;24866;50.248;8.252;2022-12-07T05:07:45;2.50;99.90
37408;DHT22;24866;50.248;8.252;2022-12-07T05:10:15;2.50;99.90
37408;DHT22;24866;50.248;8.252;2022-12-07T05:12:45;2.50;99.90
37408;DHT22;24866;50.248;8.252;2022-12-07T05:15:15;2.50;99.90
37408;DHT22;24866;50.248;8.252;2022-12-07T05:17:47;2.50;99.90
37408;DHT22;24866;50.248;8.252;2022-12-07T05:20:16;2.50;99.90
37408;DHT22;24866;50.248;8.252;2022-12-07T05:22:46;2.50;99.90
37408;DHT22;24866;50.248;8.252;2022-12-07T05:25:16;2.50;99.90
37408;DHT22;24866;50.248;8.252;2022-12-07T05:27:46;2.60;99.90
37408;DHT22;24866;50.248;8.252;2022-12-07T05:30:17;2.50;99.90
37408;DHT22;24866;50.248;8.252;2022-12-07T05:32:48;2.60;99.90
37408;DHT22;24866;50.248;8.252;2022-12-07T05:35:18;2.60;99.90
37408;DHT22;24866;50.248;8.252;2022-12-07T05:37:48;2.60;99.90
37408;DHT22;24866;50.248;8.252;2022-12-07T05:40:18;2.60;99.90
37408;DHT22;24866;50.248;8.252;2022-12-07T05:42:48;2.60;99.90
37408;DHT22;24866;50.248;8.252;2022-12-07T05:45:18;2.60;99.90
37408;DHT22;24866;50.248;8.252;2022-12-07T05:47:49;2.60;99.90
37408;DHT22;24866;50.248;8.252;2022-12-07T05:50:19;2.60;99.90
37408;DHT22;24866;50.248;8.252;2022-12-07T05:52:50;2.60;99.90
37408;DHT22;24866;50.248;8.252;2022-12-07T05:55:20;2.60;99.90
37408;DHT22;24866;50.248;8.252;2022-12-07T05:57:50;2.60;99.90
37408;DHT22;24866;50.248;8.252;2022-12-07T06:00:34;2.60;99.90
37408;DHT22;24866;50.248;8.252;2022-12-07T06:03:05;2.60;99.90
37408;DHT22;24866;50.248;8.252;2022-12-07T06:05:35;2.60;99.90
37408;DHT22;24866;50.248;8.252;2022-12-07T06:08:05;2.60;99.90
37408;DHT22;24866;50.248;8.252;2022-12-07T06:10:35;2.60;99.90
37408;DHT22;24866;50.248;8.252;2022-12-07T06:13:05;2.50;99.90
37408;DHT22;24866;50.248;8.252;2022-12-07T06:15:35;2.60;99.90
37408;DHT22;24866;50.248;8.252;2022-12-07T06:18:06;2.60;99.90
37408;DHT22;24866;50.248;8.252;2022-12-07T06:20:36;2.60;99.90
37408;DHT22;24866;50.248;8.252;2022-12-07T06:23:06;2.50;99.90
37408;DHT22;24866;50.248;8.252;2022-12-07T06:25:36;2.50;99.90
37408;DHT22;24866;50.248;8.252;2022-12-07T06:28:06;2.50;99.90
37408;DHT22;24866;50.248;8.252;2022-12-07T06:30:36;2.50;99.90
37408;DHT22;24866;50.248;8.252;2022-12-07T06:33:07;2.40;99.90
37408;DHT22;24866;50.248;8.252;2022-12-07T06:35:37;2.50;99.90
37408;DHT22;24866;50.248;8.252;2022-12-07T06:38:07;2.40;99.90
37408;DHT22;24866;50.248;8.252;2022-12-07T06:40:37;2.40;99.90
37408;DHT22;24866;50.248;8.252;2022-12-07T06:43:07;2.40;99.90
37408;DHT22;24866;50.248;8.252;2022-12-07T06:45:36;2.40;99.90
37408;DHT22;24866;50.248;8.252;2022-12-07T06:48:08;2.40;99.90
37408;DHT22;24866;50.248;8.252;2022-12-07T06:50:38;2.40;99.90
37408;DHT22;24866;50.248;8.252;2022-12-07T06:53:08;2.30;99.90
37408;DHT22;24866;50.248;8.252;2022-12-07T06:55:38;2.40;99.90
37408;DHT22;24866;50.248;8.252;2022-12-07T06:58:08;2.30;99.90
37408;DHT22;24866;50.248;8.252;2022-12-07T07:00:38;2.30;99.90
37408;DHT22;24866;50.248;8.252;2022-12-07T07:03:09;2.30;99.90
37408;DHT22;24866;50.248;8.252;2022-12-07T07:05:39;2.30;99.90
37408;DHT22;24866;50.248;8.252;2022-12-07T07:08:09;2.40;99.90
37408;DHT22;24866;50.248;8.252;2022-12-07T07:10:39;2.40;99.90
37408;DHT22;24866;50.248;8.252;2022-12-07T07:13:09;2.40;99.90
37408;DHT22;24866;50.248;8.252;2022-12-07T07:15:39;2.40;99.90
37408;DHT22;24866;50.248;8.252;2022-12-07T07:18:11;2.40;99.90
37408;DHT22;24866;50.248;8.252;2022-12-07T07:20:40;2.40;99.90
37408;DHT22;24866;50.248;8.252;2022-12-07T07:23:10;2.40;99.90
37408;DHT22;24866;50.248;8.252;2022-12-07T07:25:41;2.40;99.90
37408;DHT22;24866;50.248;8.252;2022-12-07T07:28:11;2.40;99.90
37408;DHT22;24866;50.248;8.252;2022-12-07T07:30:41;2.40;99.90
37408;DHT22;24866;50.248;8.252;2022-12-07T07:33:12;2.40;99.90
37408;DHT22;24866;50.248;8.252;2022-12-07T07:35:42;2.40;99.90
37408;DHT22;24866;50.248;8.252;2022-12-07T07:38:12;2.40;99.90
37408;DHT22;24866;50.248;8.252;2022-12-07T07:40:42;2.40;99.90
37408;DHT22;24866;50.248;8.252;2022-12-07T07:43:12;2.40;99.90
37408;DHT22;24866;50.248;8.252;2022-12-07T07:45:42;2.50;99.90
37408;DHT22;24866;50.248;8.252;2022-12-07T07:48:15;2.50;99.90
37408;DHT22;24866;50.248;8.252;2022-12-07T07:50:45;2.50;99.90
37408;DHT22;24866;50.248;8.252;2022-12-07T07:53:14;2.50;99.90
37408;DHT22;24866;50.248;8.252;2022-12-07T07:55:50;2.50;99.90
37408;DHT22;24866;50.248;8.252;2022-12-07T07:58:21;2.50;99.90
37408;DHT22;24866;50.248;8.252;2022-12-07T08:00:51;2.50;99.90
37408;DHT22;24866;50.248;8.252;2022-12-07T08:03:23;2.50;99.90
37408;DHT22;24866;50.248;8.252;2022-12-07T08:05:53;2.50;99.90
37408;DHT22;24866;50.248;8.252;2022-12-07T08:08:22;2.50;99.90
37408;DHT22;24866;50.248;8.252;2022-12-07T08:10:52;2.50;99.90
37408;DHT22;24866;50.248;8.252;2022-12-07T08:13:22;2.60;99.90
37408;DHT22;24866;50.248;8.252;2022-12-07T08:15:52;2.60;99.90
37408;DHT22;24866;50.248;8.252;2022-12-07T08:18:23;2.60;99.90
37408;DHT22;24866;50.248;8.252;2022-12-07T08:20:59;2.60;99.90
37408;DHT22;24866;50.248;8.252;2022-12-07T08:23:29;2.70;99.90
37408;DHT22;24866;50.248;8.252;2022-12-07T08:26:00;2.60;99.90
37408;DHT22;24866;50.248;8.252;2022-12-07T08:28:31;2.60;99.90
37408;DHT22;24866;50.248;8.252;2022-12-07T08:31:01;2.70;99.90
37408;DHT22;24866;50.248;8.252;2022-12-07T08:33:33;2.70;99.90
37408;DHT22;24866;50.248;8.252;2022-12-07T08:36:05;2.60;99.90
37408;DHT22;24866;50.248;8.252;2022-12-07T08:38:37;2.70;99.90
37408;DHT22;24866;50.248;8.252;2022-12-07T08:41:08;2.80;99.90
37408;DHT22;24866;50.248;8.252;2022-12-07T08:43:38;2.80;99.90
37408;DHT22;24866;50.248;8.252;2022-12-07T08:46:09;2.80;99.90
37408;DHT22;24866;50.248;8.252;2022-12-07T08:48:48;2.80;99.90
37408;DHT22;24866;50.248;8.252;2022-12-07T08:51:20;2.80;99.90
37408;DHT22;24866;50.248;8.252;2022-12-07T08:53:51;2.80;99.90
37408;DHT22;24866;50.248;8.252;2022-12-07T08:56:22;2.80;99.90
37408;DHT22;24866;50.248;8.252;2022-12-07T08:58:53;2.80;99.90
37408;DHT22;24866;50.248;8.252;2022-12-07T09:01:23;2.80;99.90
37408;DHT22;24866;50.248;8.252;2022-12-07T09:03:54;2.90;99.90
37408;DHT22;24866;50.248;8.252;2022-12-07T09:06:24;2.90;99.90
37408;DHT22;24866;50.248;8.252;2022-12-07T09:08:57;2.90;99.90
37408;DHT22;24866;50.248;8.252;2022-12-07T09:11:29;2.90;99.90
37408;DHT22;24866;50.248;8.252;2022-12-07T09:13:58;2.90;99.90
37408;DHT22;24866;50.248;8.252;2022-12-07T09:16:28;2.90;99.90
37408;DHT22;24866;50.248;8.252;2022-12-07T09:19:00;2.90;99.90
37408;DHT22;24866;50.248;8.252;2022-12-07T09:21:30;2.90;99.90
37408;DHT22;24866;50.248;8.252;2022-12-07T09:24:00;3.00;99.90
37408;DHT22;24866;50.248;8.252;2022-12-07T09:26:30;3.00;99.90
37408;DHT22;24866;50.248;8.252;2022-12-07T09:29:00;3.20;99.90
37408;DHT22;24866;50.248;8.252;2022-12-07T09:31:30;3.30;99.90
37408;DHT22;24866;50.248;8.252;2022-12-07T09:34:01;3.30;99.90
37408;DHT22;24866;50.248;8.252;2022-12-07T09:36:32;3.50;99.90
37408;DHT22;24866;50.248;8.252;2022-12-07T09:39:02;3.70;99.90
37408;DHT22;24866;50.248;8.252;2022-12-07T09:41:33;3.80;99.90
37408;DHT22;24866;50.248;8.252;2022-12-07T09:44:09;3.80;99.90
37408;DHT22;24866;50.248;8.252;2022-12-07T09:46:43;3.80;99.90
37408;DHT22;24866;50.248;8.252;2022-12-07T09:49:19;3.80;99.90
37408;DHT22;24866;50.248;8.252;2022-12-07T09:52:00;3.80;99.90
37408;DHT22;24866;50.248;8.252;2022-12-07T09:54:30;3.80;99.90
37408;DHT22;24866;50.248;8.252;2022-12-07T09:57:01;3.90;99.90
37408;DHT22;24866;50.248;8.252;2022-12-07T09:59:31;3.90;99.90
37408;DHT22;24866;50.248;8.252;2022-12-07T10:02:23;3.90;99.90
37408;DHT22;24866;50.248;8.252;2022-12-07T10:04:56;3.90;99.90
37408;DHT22;24866;50.248;8.252;2022-12-07T10:07:27;3.90;99.90
37408;DHT22;24866;50.248;8.252;2022-12-07T10:09:57;4.00;99.90
37408;DHT22;24866;50.248;8.252;2022-12-07T10:12:27;3.90;99.90
37408;DHT22;24866;50.248;8.252;2022-12-07T10:15:01;3.90;99.90
37408;DHT22;24866;50.248;8.252;2022-12-07T10:17:35;3.90;99.90
37408;DHT22;24866;50.248;8.252;2022-12-07T10:20:19;4.00;99.90
37408;DHT22;24866;50.248;8.252;2022-12-07T10:22:55;4.00;99.90
37408;DHT22;24866;50.248;8.252;2022-12-07T10:25:29;3.90;99.90
37408;DHT22;24866;50.248;8.252;2022-12-07T10:28:03;4.00;99.90
37408;DHT22;24866;50.248;8.252;2022-12-07T10:30:52;4.10;99.90
37408;DHT22;24866;50.248;8.252;2022-12-07T10:33:34;4.00;99.90
37408;DHT22;24866;50.248;8.252;2022-12-07T10:36:20;4.00;99.90
37408;DHT22;24866;50.248;8.252;2022-12-07T10:38:53;4.10;99.90
37408;DHT22;24866;50.248;8.252;2022-12-07T10:41:27;4.10;99.90
37408;DHT22;24866;50.248;8.252;2022-12-07T10:43:58;4.20;99.90
37408;DHT22;24866;50.248;8.252;2022-12-07T10:52:49;4.20;99.90
37408;DHT22;24866;50.248;8.252;2022-12-07T10:55:23;4.30;99.90
37408;DHT22;24866;50.248;8.252;2022-12-07T10:58:07;4.30;99.90
37408;DHT22;24866;50.248;8.252;2022-12-07T11:00:49;4.30;99.90
37408;DHT22;24866;50.248;8.252;2022-12-07T11:03:34;4.20;99.90
37408;DHT22;24866;50.248;8.252;2022-12-07T11:06:14;4.30;99.90
37408;DHT22;24866;50.248;8.252;2022-12-07T11:09:21;4.30;99.90
37408;DHT22;24866;50.248;8.252;2022-12-07T11:11:59;4.30;99.90
37408;DHT22;24866;50.248;8.252;2022-12-07T11:14:39;4.50;99.90
37408;DHT22;24866;50.248;8.252;2022-12-07T11:17:14;4.70;99.90
37408;DHT22;24866;50.248;8.252;2022-12-07T11:19:54;4.80;99.90
37408;DHT22;24866;50.248;8.252;2022-12-07T11:22:36;4.90;99.90
37408;DHT22;24866;50.248;8.252;2022-12-07T11:25:20;4.90;99.90
37408;DHT22;24866;50.248;8.252;2022-12-07T11:28:06;5.00;99.90
37408;DHT22;24866;50.248;8.252;2022-12-07T11:30:46;5.00;99.90
37408;DHT22;24866;50.248;8.252;2022-12-07T11:33:24;5.10;99.90
37408;DHT22;24866;50.248;8.252;2022-12-07T11:36:04;5.00;99.90
37408;DHT22;24866;50.248;8.252;2022-12-07T11:38:43;4.90;99.90
37408;DHT22;24866;50.248;8.252;2022-12-07T11:41:20;4.80;99.90
37408;DHT22;24866;50.248;8.252;2022-12-07T11:43:55;4.80;99.90
37408;DHT22;24866;50.248;8.252;2022-12-07T11:46:29;4.80;99.90
37408;DHT22;24866;50.248;8.252;2022-12-07T11:49:08;4.70;99.90
37408;DHT22;24866;50.248;8.252;2022-12-07T11:51:41;4.80;99.90
37408;DHT22;24866;50.248;8.252;2022-12-07T11:54:15;4.70;99.90
37408;DHT22;24866;50.248;8.252;2022-12-07T11:56:50;4.70;99.90
37408;DHT22;24866;50.248;8.252;2022-12-07T11:59:25;4.90;99.90
37408;DHT22;24866;50.248;8.252;2022-12-07T12:02:00;4.90;99.90
37408;DHT22;24866;50.248;8.252;2022-12-07T12:04:41;4.60;99.90
37408;DHT22;24866;50.248;8.252;2022-12-07T12:07:17;4.60;99.90
37408;DHT22;24866;50.248;8.252;2022-12-07T12:09:51;4.50;99.90
37408;DHT22;24866;50.248;8.252;2022-12-07T12:12:47;4.50;99.90
37408;DHT22;24866;50.248;8.252;2022-12-07T12:15:29;4.50;99.90
37408;DHT22;24866;50.248;8.252;2022-12-07T12:20:51;4.50;99.90
37408;DHT22;24866;50.248;8.252;2022-12-07T12:23:23;4.60;99.90
37408;DHT22;24866;50.248;8.252;2022-12-07T12:25:57;4.50;99.90
37408;DHT22;24866;50.248;8.252;2022-12-07T12:28:37;4.40;99.90
37408;DHT22;24866;50.248;8.252;2022-12-07T12:31:12;4.30;99.90
37408;DHT22;24866;50.248;8.252;2022-12-07T12:33:44;4.20;99.90
37408;DHT22;24866;50.248;8.252;2022-12-07T12:36:24;4.20;99.90
37408;DHT22;24866;50.248;8.252;2022-12-07T12:39:12;4.20;99.90
37408;DHT22;24866;50.248;8.252;2022-12-07T12:41:59;4.30;99.90
37408;DHT22;24866;50.248;8.252;2022-12-07T12:47:58;4.10;99.90
37408;DHT22;24866;50.248;8.252;2022-12-07T12:50:31;4.20;99.90
37408;DHT22;24866;50.248;8.252;2022-12-07T12:53:13;4.20;99.90
37408;DHT22;24866;50.248;8.252;2022-12-07T12:58:44;4.50;99.90
37408;DHT22;24866;50.248;8.252;2022-12-07T13:01:42;4.50;99.90
37408;DHT22;24866;50.248;8.252;2022-12-07T13:04:32;4.70;99.90
37408;DHT22;24866;50.248;8.252;2022-12-07T13:07:13;4.60;99.90
37408;DHT22;24866;50.248;8.252;2022-12-07T13:09:44;4.70;99.90
37408;DHT22;24866;50.248;8.252;2022-12-07T13:12:16;4.60;99.90
37408;DHT22;24866;50.248;8.252;2022-12-07T13:14:57;4.70;99.90
37408;DHT22;24866;50.248;8.252;2022-12-07T13:17:59;4.70;99.90
37408;DHT22;24866;50.248;8.252;2022-12-07T13:20:51;4.60;99.90
37408;DHT22;24866;50.248;8.252;2022-12-07T13:23:26;4.60;99.90
37408;DHT22;24866;50.248;8.252;2022-12-07T13:26:09;4.60;99.90
37408;DHT22;24866;50.248;8.252;2022-12-07T13:28:44;4.70;99.90
37408;DHT22;24866;50.248;8.252;2022-12-07T13:31:30;4.60;99.90
37408;DHT22;24866;50.248;8.252;2022-12-07T13:34:02;4.50;99.90
37408;DHT22;24866;50.248;8.252;2022-12-07T13:36:37;4.50;99.90
37408;DHT22;24866;50.248;8.252;2022-12-07T13:39:18;4.30;99.90
37408;DHT22;24866;50.248;8.252;2022-12-07T13:41:50;4.00;99.90
37408;DHT22;24866;50.248;8.252;2022-12-07T13:44:22;3.40;99.90
37408;DHT22;24866;50.248;8.252;2022-12-07T13:46:57;3.30;99.90
37408;DHT22;24866;50.248;8.252;2022-12-07T13:49:30;3.30;99.90
37408;DHT22;24866;50.248;8.252;2022-12-07T13:52:15;3.50;99.90
37408;DHT22;24866;50.248;8.252;2022-12-07T13:54:47;3.50;99.90
37408;DHT22;24866;50.248;8.252;2022-12-07T13:57:18;3.60;99.90
37408;DHT22;24866;50.248;8.252;2022-12-07T13:59:49;3.70;99.90
37408;DHT22;24866;50.248;8.252;2022-12-07T14:02:20;3.60;99.90
37408;DHT22;24866;50.248;8.252;2022-12-07T14:04:51;3.80;99.90
37408;DHT22;24866;50.248;8.252;2022-12-07T14:07:25;3.90;99.90
37408;DHT22;24866;50.248;8.252;2022-12-07T14:09:58;4.00;99.90
37408;DHT22;24866;50.248;8.252;2022-12-07T14:12:30;4.10;99.90
37408;DHT22;24866;50.248;8.252;2022-12-07T14:15:01;3.80;99.90
37408;DHT22;24866;50.248;8.252;2022-12-07T14:17:32;3.60;99.90
37408;DHT22;24866;50.248;8.252;2022-12-07T14:20:04;3.60;99.90
37408;DHT22;24866;50.248;8.252;2022-12-07T14:22:56;3.60;99.90
37408;DHT22;24866;50.248;8.252;2022-12-07T14:25:26;3.70;99.90
37408;DHT22;24866;50.248;8.252;2022-12-07T14:27:57;3.90;99.90
37408;DHT22;24866;50.248;8.252;2022-12-07T14:30:29;4.00;99.90
37408;DHT22;24866;50.248;8.252;2022-12-07T14:33:02;3.90;99.90
37408;DHT22;24866;50.248;8.252;2022-12-07T14:35:32;3.50;99.90
37408;DHT22;24866;50.248;8.252;2022-12-07T14:38:04;3.30;99.90
37408;DHT22;24866;50.248;8.252;2022-12-07T14:40:34;3.30;99.90
37408;DHT22;24866;50.248;8.252;2022-12-07T14:43:06;3.30;99.90
37408;DHT22;24866;50.248;8.252;2022-12-07T14:45:39;3.20;99.90
37408;DHT22;24866;50.248;8.252;2022-12-07T14:48:11;3.20;99.90
37408;DHT22;24866;50.248;8.252;2022-12-07T14:50:46;3.10;99.90
37408;DHT22;24866;50.248;8.252;2022-12-07T14:53:26;3.10;99.90
37408;DHT22;24866;50.248;8.252;2022-12-07T14:55:58;3.10;99.90
37408;DHT22;24866;50.248;8.252;2022-12-07T14:58:28;3.20;99.90
37408;DHT22;24866;50.248;8.252;2022-12-07T15:00:58;3.10;99.90
37408;DHT22;24866;50.248;8.252;2022-12-07T15:03:28;3.20;99.90
37408;DHT22;24866;50.248;8.252;2022-12-07T15:05:59;3.10;99.90
37408;DHT22;24866;50.248;8.252;2022-12-07T15:08:31;3.10;99.90
37408;DHT22;24866;50.248;8.252;2022-12-07T15:11:01;3.10;99.90
37408;DHT22;24866;50.248;8.252;2022-12-07T15:13:31;3.00;99.90
37408;DHT22;24866;50.248;8.252;2022-12-07T15:16:20;3.20;99.90
37408;DHT22;24866;50.248;8.252;2022-12-07T15:18:50;3.20;99.90
37408;DHT22;24866;50.248;8.252;2022-12-07T15:21:20;3.20;99.90
37408;DHT22;24866;50.248;8.252;2022-12-07T15:23:52;3.20;99.90
37408;DHT22;24866;50.248;8.252;2022-12-07T15:26:23;3.20;99.90
37408;DHT22;24866;50.248;8.252;2022-12-07T15:28:53;3.30;99.90
37408;DHT22;24866;50.248;8.252;2022-12-07T15:31:23;3.40;99.90
37408;DHT22;24866;50.248;8.252;2022-12-07T15:33:53;3.30;99.90
37408;DHT22;24866;50.248;8.252;2022-12-07T15:36:24;3.20;99.90
37408;DHT22;24866;50.248;8.252;2022-12-07T15:38:57;3.20;99.90
37408;DHT22;24866;50.248;8.252;2022-12-07T15:41:30;3.00;99.90
37408;DHT22;24866;50.248;8.252;2022-12-07T15:44:00;2.90;99.90
37408;DHT22;24866;50.248;8.252;2022-12-07T15:46:48;2.90;99.90
37408;DHT22;24866;50.248;8.252;2022-12-07T15:49:19;2.70;99.90
37408;DHT22;24866;50.248;8.252;2022-12-07T15:51:49;2.80;99.90
37408;DHT22;24866;50.248;8.252;2022-12-07T15:54:22;2.70;99.90
37408;DHT22;24866;50.248;8.252;2022-12-07T15:56:52;2.80;99.90
37408;DHT22;24866;50.248;8.252;2022-12-07T15:59:23;2.70;99.90
37408;DHT22;24866;50.248;8.252;2022-12-07T16:01:55;2.60;99.90
37408;DHT22;24866;50.248;8.252;2022-12-07T16:04:27;2.60;99.90
37408;DHT22;24866;50.248;8.252;2022-12-07T16:06:57;2.60;99.90
37408;DHT22;24866;50.248;8.252;2022-12-07T16:09:28;2.60;99.90
37408;DHT22;24866;50.248;8.252;2022-12-07T16:12:00;2.60;99.90
37408;DHT22;24866;50.248;8.252;2022-12-07T16:14:30;2.60;99.90
37408;DHT22;24866;50.248;8.252;2022-12-07T16:17:01;2.60;99.90
37408;DHT22;24866;50.248;8.252;2022-12-07T16:19:34;2.70;99.90
37408;DHT22;24866;50.248;8.252;2022-12-07T16:22:04;2.70;99.90
37408;DHT22;24866;50.248;8.252;2022-12-07T16:24:36;2.80;99.90
37408;DHT22;24866;50.248;8.252;2022-12-07T16:27:06;2.80;99.90
37408;DHT22;24866;50.248;8.252;2022-12-07T16:29:37;2.90;99.90
37408;DHT22;24866;50.248;8.252;2022-12-07T16:32:06;3.10;99.90
37408;DHT22;24866;50.248;8.252;2022-12-07T16:34:37;3.10;99.90
37408;DHT22;24866;50.248;8.252;2022-12-07T16:37:07;3.20;99.90
37408;DHT22;24866;50.248;8.252;2022-12-07T16:39:38;3.40;99.90